Time;durP1;ratioP1;P1;durP2;ratioP2;P2;SDS_P1;SDS_P2;PMS_P1;PMS_P2;Temp;Humidity;BMP_temperature;BMP_pressure;BME280_temperature;BME280_humidity;BME280_pressure;Samples;Min_cycle;Max_cycle;Signal;HPM_P1;HPM_P2
2024/01/26 00:00:13;;;;;;;102.60;32.15;;;;;;;-146.25;100.00;52532.44;2023591;29;37105;-64
2024/01/26 00:01:14;;;;;;;84.82;31.45;;;;;;;-146.25;100.00;52542.56;2024867;29;20041;-64
2024/01/26 00:02:16;;;;;;;105.75;33.65;;;;;;;-146.25;100.00;52568.94;2023820;29;36599;-64
2024/01/26 00:03:18;;;;;;;88.68;32.33;;;;;;;-146.25;100.00;52540.53;2023892;29;33474;-64
2024/01/26 00:04:20;;;;;;;92.70;32.50;;;;;;;-146.25;100.00;52579.06;2023785;29;34451;-64
2024/01/26 00:05:22;;;;;;;99.63;31.85;;;;;;;-146.25;100.00;52566.91;2023907;29;36814;-63
2024/01/26 00:06:24;;;;;;;100.43;33.10;;;;;;;-146.25;100.00;52603.41;2024273;29;20102;-64
2024/01/26 00:07:29;;;;;;;102.70;34.05;;;;;;;-146.25;100.00;52573.00;2015626;29;36950;-63
2024/01/26 00:08:31;;;;;;;105.78;34.28;;;;;;;-146.25;100.00;52540.53;2015834;29;32602;-63
2024/01/26 00:09:33;;;;;;;97.57;33.58;;;;;;;-146.25;100.00;52573.00;2023772;29;33098;-63
2024/01/26 00:10:34;;;;;;;101.55;33.80;;;;;;;-146.25;100.00;52587.19;2023929;29;35181;-64
2024/01/26 00:11:37;;;;;;;91.60;32.40;;;;;;;-146.25;100.00;52570.97;2024706;29;21281;-63
2024/01/26 00:12:39;;;;;;;99.20;34.30;;;;;;;-146.25;100.00;52564.88;2023020;29;35800;-63
2024/01/26 00:13:41;;;;;;;96.47;33.58;;;;;;;-146.25;100.00;52538.53;2015855;29;31924;-63
2024/01/26 00:14:43;;;;;;;97.47;33.60;;;;;;;-146.25;100.00;52560.81;2015699;29;33897;-63
2024/01/26 00:15:47;;;;;;;97.88;33.95;;;;;;;-146.25;100.00;52542.56;2023904;29;34664;-63
2024/01/26 00:16:49;;;;;;;94.72;33.47;;;;;;;-146.25;100.00;52583.13;2023209;29;37159;-63
2024/01/26 00:17:51;;;;;;;91.60;33.00;;;;;;;-146.25;100.00;52554.75;2024549;29;32519;-63
2024/01/26 00:18:53;;;;;;;102.55;33.20;;;;;;;-146.25;100.00;52534.47;2023074;29;35554;-63
2024/01/26 00:19:55;;;;;;;99.13;35.00;;;;;;;-146.25;100.00;52587.19;2023989;29;35589;-63
2024/01/26 00:20:56;;;;;;;97.68;33.67;;;;;;;-146.25;100.00;52532.44;2023811;29;34769;-63
2024/01/26 00:21:58;;;;;;;95.30;34.40;;;;;;;-146.25;100.00;52550.69;2023899;29;24603;-63
2024/01/26 00:23:00;;;;;;;88.63;31.98;;;;;;;-146.25;100.00;52554.75;2023678;29;33897;-63
2024/01/26 00:24:04;;;;;;;96.28;36.10;;;;;;;-146.25;100.00;52568.94;2023747;29;36997;-63
2024/01/26 00:25:06;;;;;;;97.72;34.30;;;;;;;-146.25;100.00;52575.00;2023700;29;35483;-63
2024/01/26 00:26:08;;;;;;;105.97;34.30;;;;;;;-146.25;100.00;52591.25;2023787;29;32086;-63
2024/01/26 00:27:10;;;;;;;106.07;35.35;;;;;;;-146.25;100.00;52583.13;2023898;29;34109;-63
2024/01/26 00:28:12;;;;;;;97.40;35.42;;;;;;;-146.25;100.00;52583.13;2024020;29;32567;-64
2024/01/26 00:29:13;;;;;;;94.90;35.15;;;;;;;-146.25;100.00;52558.78;2023639;29;30675;-63
2024/01/26 00:30:15;;;;;;;109.53;36.08;;;;;;;-146.25;100.00;52526.34;2023992;29;38970;-63
2024/01/26 00:31:18;;;;;;;94.30;34.63;;;;;;;-146.25;100.00;52536.50;2024466;29;20883;-63
2024/01/26 00:32:20;;;;;;;84.72;33.83;;;;;;;-146.25;100.00;52536.50;2023918;29;36906;-63
2024/01/26 00:33:22;;;;;;;95.88;36.42;;;;;;;-146.25;100.00;52554.75;2015461;29;33540;-63
2024/01/26 00:34:24;;;;;;;92.15;35.90;;;;;;;-146.25;100.00;52562.84;2015789;29;20087;-63
2024/01/26 00:35:26;;;;;;;97.05;36.47;;;;;;;-146.25;100.00;52583.13;2023072;29;37397;-63
2024/01/26 00:36:28;;;;;;;108.40;35.95;;;;;;;-146.25;100.00;52556.75;2023816;29;33103;-63
2024/01/26 00:37:30;;;;;;;102.00;35.92;;;;;;;-146.25;100.00;52550.69;2023669;29;34652;-63
2024/01/26 00:38:34;;;;;;;104.05;35.88;;;;;;;-146.25;100.00;52554.75;2023855;29;33895;-63
2024/01/26 00:39:38;;;;;;;90.85;35.20;;;;;;;-146.25;100.00;52587.19;2023585;29;26897;-63
2024/01/26 00:40:40;;;;;;;101.72;35.28;;;;;;;-146.25;100.00;52540.53;2023306;29;33887;-63
2024/01/26 00:41:44;;;;;;;94.40;36.00;;;;;;;-146.25;100.00;52556.75;2015582;29;34499;-63
2024/01/26 00:42:48;;;;;;;85.38;35.08;;;;;;;-146.25;100.00;52583.13;2016031;29;36466;-63
2024/01/26 00:43:49;;;;;;;96.40;34.35;;;;;;;-146.25;100.00;52558.78;2023112;29;33661;-63
2024/01/26 00:44:51;;;;;;;99.57;35.10;;;;;;;-146.25;100.00;52534.47;2023085;29;35231;-63
2024/01/26 00:45:53;;;;;;;103.43;35.65;;;;;;;-146.25;100.00;52546.63;2023661;29;20049;-63
2024/01/26 00:46:55;;;;;;;82.38;32.65;;;;;;;-146.25;100.00;52599.34;2024137;29;32784;-63
2024/01/26 00:47:57;;;;;;;89.72;35.88;;;;;;;-146.25;100.00;52558.78;2023523;29;37200;-63
2024/01/26 00:48:59;;;;;;;101.80;34.80;;;;;;;-146.25;100.00;52587.19;2022763;29;34829;-63
2024/01/26 00:50:01;;;;;;;96.95;34.90;;;;;;;-146.25;100.00;52566.91;2023012;29;35626;-63
2024/01/26 00:51:03;;;;;;;92.30;33.85;;;;;;;-146.25;100.00;52627.75;2023022;29;39358;-63
2024/01/26 00:52:05;;;;;;;97.50;34.67;;;;;;;-146.25;100.00;52560.81;2023337;29;32043;-63
2024/01/26 00:53:07;;;;;;;96.47;35.13;;;;;;;-146.25;100.00;52579.06;2023666;29;34808;-63
2024/01/26 00:54:09;;;;;;;90.68;33.20;;;;;;;-146.25;100.00;52570.97;2023250;29;37942;-63
2024/01/26 00:55:10;;;;;;;85.18;34.33;;;;;;;-146.25;100.00;52575.00;2023834;29;33365;-63
2024/01/26 00:56:13;;;;;;;101.10;35.38;;;;;;;-146.25;100.00;52583.13;2023550;29;26091;-63
2024/01/26 00:57:14;;;;;;;100.03;36.22;;;;;;;-146.25;100.00;52566.91;2023648;29;36549;-63
2024/01/26 00:58:16;;;;;;;83.72;34.13;;;;;;;-146.25;100.00;52570.97;2023533;29;33642;-64
2024/01/26 00:59:18;;;;;;;85.22;33.13;;;;;;;-146.25;100.00;52560.81;2023853;29;28534;-64
2024/01/26 01:00:20;;;;;;;91.50;36.22;;;;;;;-146.25;100.00;52568.94;2023788;29;32455;-63
2024/01/26 01:01:24;;;;;;;86.70;34.97;;;;;;;-146.25;100.00;52544.59;2024219;29;20056;-63
2024/01/26 01:02:26;;;;;;;88.15;34.33;;;;;;;-146.25;100.00;52560.81;2023928;29;34811;-63
2024/01/26 01:03:28;;;;;;;87.97;34.80;;;;;;;-146.25;100.00;52568.94;2023879;29;34640;-63
2024/01/26 01:04:32;;;;;;;82.35;34.65;;;;;;;-146.25;100.00;52534.47;2023245;29;34683;-63
2024/01/26 01:05:34;;;;;;;82.50;34.88;;;;;;;-146.25;100.00;52577.03;2022950;29;36126;-64
2024/01/26 01:06:35;;;;;;;88.55;34.72;;;;;;;-146.25;100.00;52570.97;2022859;29;33468;-64
2024/01/26 01:07:37;;;;;;;81.63;33.70;;;;;;;-146.25;100.00;52605.44;2024131;29;29973;-64
2024/01/26 01:08:39;;;;;;;82.68;34.20;;;;;;;-146.25;100.00;52601.38;2023243;29;35348;-64
2024/01/26 01:09:41;;;;;;;81.05;33.92;;;;;;;-146.25;100.00;52548.66;2023661;29;38572;-63
2024/01/26 01:10:43;;;;;;;77.47;32.83;;;;;;;-146.25;100.00;52573.00;2023573;29;33225;-64
2024/01/26 01:11:45;;;;;;;84.85;33.33;;;;;;;-146.25;100.00;52560.81;2023817;29;34858;-63
2024/01/26 01:12:47;;;;;;;71.93;32.17;;;;;;;-146.25;100.00;52579.06;2023480;29;35538;-63
2024/01/26 01:13:49;;;;;;;73.28;32.05;;;;;;;-146.25;100.00;52544.59;2023508;29;20111;-64
2024/01/26 01:14:51;;;;;;;70.88;32.83;;;;;;;-146.25;100.00;52568.94;2015044;29;36794;-64
2024/01/26 01:15:53;;;;;;;81.03;33.55;;;;;;;-146.25;100.00;52554.75;2015733;29;34152;-63
2024/01/26 01:16:56;;;;;;;77.95;33.22;;;;;;;-146.25;100.00;52564.88;2024055;29;21073;-64
2024/01/26 01:17:58;;;;;;;82.88;32.75;;;;;;;-146.25;100.00;52570.97;2023425;29;37885;-63
2024/01/26 01:19:00;;;;;;;74.63;31.98;;;;;;;-146.25;100.00;52577.03;2023805;29;20041;-64
2024/01/26 01:20:04;;;;;;;89.47;34.45;;;;;;;-146.25;100.00;52581.09;2023575;29;35973;-64
2024/01/26 01:21:06;;;;;;;78.90;34.75;;;;;;;-146.25;100.00;52577.03;2023534;29;29607;-64
2024/01/26 01:22:08;;;;;;;76.70;32.90;;;;;;;-146.25;100.00;52579.06;2024246;29;20038;-63
2024/01/26 01:23:09;;;;;;;82.78;33.65;;;;;;;-146.25;100.00;52528.38;2023560;29;38657;-64
2024/01/26 01:24:11;;;;;;;85.88;34.72;;;;;;;-146.25;100.00;52546.63;2023352;29;35908;-63
2024/01/26 01:25:13;;;;;;;82.43;33.80;;;;;;;-146.25;100.00;52575.00;2023309;29;36775;-63
2024/01/26 01:26:16;;;;;;;85.95;33.75;;;;;;;-146.25;100.00;52570.97;2023609;29;37478;-64
2024/01/26 01:27:18;;;;;;;77.50;33.50;;;;;;;-146.25;100.00;52558.78;2023294;29;34055;-64
2024/01/26 01:28:20;;;;;;;85.32;34.60;;;;;;;-146.25;100.00;52568.94;2023828;29;33634;-63
2024/01/26 01:29:24;;;;;;;83.43;33.90;;;;;;;-146.25;100.00;52585.16;2023605;29;33399;-64
2024/01/26 01:30:27;;;;;;;81.78;33.50;;;;;;;-146.25;100.00;52585.16;2023524;29;36573;-63
2024/01/26 01:31:30;;;;;;;79.40;33.30;;;;;;;-146.25;100.00;52573.00;2023610;29;31155;-64
2024/01/26 01:32:32;;;;;;;94.32;34.47;;;;;;;-146.25;100.00;52577.03;2023764;29;20807;-64
2024/01/26 01:33:34;;;;;;;83.10;33.80;;;;;;;-146.25;100.00;52579.06;2023304;29;35602;-64
2024/01/26 01:34:37;;;;;;;82.60;33.55;;;;;;;-146.25;100.00;52573.00;2023446;29;33252;-64
2024/01/26 01:35:38;;;;;;;91.10;34.72;;;;;;;-146.25;100.00;52587.19;2023294;29;34257;-64
2024/01/26 01:36:40;;;;;;;90.20;34.05;;;;;;;-146.25;100.00;52556.75;2023558;29;38245;-63
2024/01/26 01:37:42;;;;;;;81.43;33.97;;;;;;;-146.25;100.00;52554.75;2023786;29;27888;-64
2024/01/26 01:38:45;;;;;;;87.25;35.10;;;;;;;-146.25;100.00;52560.81;2023625;29;33655;-63
2024/01/26 01:39:48;;;;;;;84.38;33.47;;;;;;;-146.25;100.00;52589.22;2023293;29;34512;-63
2024/01/26 01:40:50;;;;;;;82.15;32.92;;;;;;;-146.25;100.00;52546.63;2024254;29;20045;-64
2024/01/26 01:41:52;;;;;;;86.75;34.05;;;;;;;-146.25;100.00;52619.63;2023352;29;37364;-64
2024/01/26 01:42:53;;;;;;;83.80;33.58;;;;;;;-146.25;100.00;52583.13;2023805;29;27054;-64
2024/01/26 01:43:56;;;;;;;89.85;33.58;;;;;;;-146.25;100.00;52556.75;2023931;29;20041;-64
2024/01/26 01:44:58;;;;;;;77.63;31.83;;;;;;;-146.25;100.00;52564.88;2023438;29;36776;-64
2024/01/26 01:46:00;;;;;;;83.80;33.13;;;;;;;-146.25;100.00;52570.97;2024172;29;20049;-63
2024/01/26 01:47:02;;;;;;;83.78;31.88;;;;;;;-146.25;100.00;52550.69;2024138;29;37216;-64
2024/01/26 01:48:04;;;;;;;80.72;31.77;;;;;;;-146.25;100.00;52575.00;2024547;29;30954;-64
2024/01/26 01:49:07;;;;;;;76.75;31.83;;;;;;;-146.25;100.00;52570.97;2025240;29;20845;-64
2024/01/26 01:50:09;;;;;;;76.93;31.20;;;;;;;-146.25;100.00;52597.31;2023701;29;34174;-64
2024/01/26 01:51:14;;;;;;;79.75;32.83;;;;;;;-146.25;100.00;52587.19;2024273;29;33737;-64
2024/01/26 01:52:17;;;;;;;79.10;32.72;;;;;;;-146.25;100.00;52566.91;2024546;29;20037;-64
2024/01/26 01:53:20;;;;;;;77.68;30.98;;;;;;;-146.25;100.00;52556.75;2023997;29;36399;-64
2024/01/26 01:54:23;;;;;;;76.82;30.92;;;;;;;-146.25;100.00;52534.47;2024597;29;33457;-63
2024/01/26 01:55:26;;;;;;;81.78;32.10;;;;;;;-146.25;100.00;52577.03;2024407;29;34091;-64
2024/01/26 01:56:35;;;;;;;78.97;32.15;;;;;;;-146.25;100.00;52566.91;2016261;29;34598;-63
2024/01/26 01:57:40;;;;;;;68.22;28.25;;;;;;;-146.25;100.00;52585.16;2017984;29;23203;-64
2024/01/26 01:58:42;;;;;;;80.35;30.52;;;;;;;-146.25;100.00;52534.47;2024242;29;33456;-63
2024/01/26 01:59:44;;;;;;;74.35;31.05;;;;;;;-146.25;100.00;52558.78;2024500;29;32939;-64
2024/01/26 02:00:46;;;;;;;79.38;30.90;;;;;;;-146.25;100.00;52546.63;2025261;29;20845;-64
2024/01/26 02:01:50;;;;;;;78.53;30.38;;;;;;;-146.25;100.00;52599.34;2025537;29;20045;-63
2024/01/26 02:02:52;;;;;;;78.43;30.48;;;;;;;-146.25;100.00;52566.91;2024460;29;38299;-64
2024/01/26 02:03:55;;;;;;;85.13;31.75;;;;;;;-146.25;100.00;52544.59;2024946;29;31816;-64
2024/01/26 02:04:57;;;;;;;78.22;30.65;;;;;;;-146.25;100.00;52573.00;2025020;29;20906;-64
2024/01/26 02:05:59;;;;;;;76.22;30.45;;;;;;;-146.25;100.00;52583.13;2024814;29;35010;-63
2024/01/26 02:07:04;;;;;;;81.10;29.83;;;;;;;-146.25;100.00;52532.44;2024582;29;33390;-62
2024/01/26 02:08:06;;;;;;;75.35;29.95;;;;;;;-146.25;100.00;52560.81;2024763;29;34340;-62
2024/01/26 02:09:07;;;;;;;76.15;28.75;;;;;;;-146.25;100.00;52560.81;2024836;29;34870;-62
2024/01/26 02:10:12;;;;;;;77.22;29.45;;;;;;;-146.25;100.00;52570.97;2025215;29;20045;-62
2024/01/26 02:11:14;;;;;;;85.32;30.80;;;;;;;-146.25;100.00;52546.63;2024576;29;35673;-61
2024/01/26 02:12:16;;;;;;;77.88;30.05;;;;;;;-146.25;100.00;52575.00;2024836;29;34693;-62
2024/01/26 02:13:18;;;;;;;84.18;31.55;;;;;;;-146.25;100.00;52568.94;2025204;29;20910;-62
2024/01/26 02:14:19;;;;;;;79.28;29.98;;;;;;;-146.25;100.00;52564.88;2024050;29;35121;-62
2024/01/26 02:15:21;;;;;;;83.18;31.13;;;;;;;-146.25;100.00;52554.75;2024200;29;28875;-62
2024/01/26 02:16:23;;;;;;;85.28;31.98;;;;;;;-146.25;100.00;52548.66;2025537;29;20045;-62
2024/01/26 02:17:33;;;;;;;76.75;29.70;;;;;;;-146.25;100.00;52579.06;2024660;29;35132;-62
2024/01/26 02:18:34;;;;;;;82.05;31.30;;;;;;;-146.25;100.00;52583.13;2023675;29;33167;-61
2024/01/26 02:19:36;;;;;;;74.07;30.05;;;;;;;-146.25;100.00;52601.38;2023632;29;34305;-62
2024/01/26 02:20:38;;;;;;;76.45;31.65;;;;;;;-146.25;100.00;52556.75;2024762;29;37603;-62
2024/01/26 02:21:45;;;;;;;82.15;30.67;;;;;;;-146.25;100.00;52562.84;2024359;29;34641;-62
2024/01/26 02:22:47;;;;;;;81.20;31.45;;;;;;;-146.25;100.00;52579.06;2024831;29;36024;-62
2024/01/26 02:23:48;;;;;;;83.13;30.27;;;;;;;-146.25;100.00;52570.97;2025281;29;20049;-62
2024/01/26 02:24:50;;;;;;;75.43;30.25;;;;;;;-146.25;100.00;52570.97;2025511;29;20049;-62
2024/01/26 02:25:54;;;;;;;85.00;30.25;;;;;;;-146.25;100.00;52583.13;2024354;29;33722;-62
2024/01/26 02:26:56;;;;;;;75.32;29.45;;;;;;;-146.25;100.00;52544.59;2024672;29;33761;-62
2024/01/26 02:27:58;;;;;;;79.35;31.55;;;;;;;-146.25;100.00;52573.00;2024281;29;34591;-62
2024/01/26 02:29:00;;;;;;;83.93;30.63;;;;;;;-146.25;100.00;52562.84;2024849;29;34955;-62
2024/01/26 02:30:03;;;;;;;76.68;29.58;;;;;;;-146.25;100.00;52575.00;2025143;29;20092;-62
2024/01/26 02:31:05;;;;;;;71.43;29.73;;;;;;;-146.25;100.00;52585.16;2025872;29;20092;-62
2024/01/26 02:32:09;;;;;;;80.15;31.48;;;;;;;-146.25;100.00;52554.75;2024615;29;33951;-61
2024/01/26 02:33:11;;;;;;;75.80;29.42;;;;;;;-146.25;100.00;52558.78;2024839;29;20883;-63
2024/01/26 02:34:13;;;;;;;78.00;29.73;;;;;;;-146.25;100.00;52540.53;2023340;29;37065;-63
2024/01/26 02:35:15;;;;;;;83.57;31.23;;;;;;;-146.25;100.00;52532.44;2024777;29;32420;-63
2024/01/26 02:36:17;;;;;;;79.03;30.77;;;;;;;-146.25;100.00;52562.84;2024487;29;29810;-63
2024/01/26 02:37:19;;;;;;;76.07;29.20;;;;;;;-146.25;100.00;52589.22;2023694;29;37508;-62
2024/01/26 02:38:23;;;;;;;81.45;30.77;;;;;;;-146.25;100.00;52583.13;2024673;29;20049;-62
2024/01/26 02:39:25;;;;;;;80.47;29.70;;;;;;;-146.25;100.00;52544.59;2024387;29;34775;-62
2024/01/26 02:40:29;;;;;;;76.00;30.10;;;;;;;-146.25;100.00;52597.31;2024318;29;34269;-63
2024/01/26 02:41:35;;;;;;;73.68;28.88;;;;;;;-146.25;100.00;52579.06;2025245;29;20937;-63
2024/01/26 02:42:39;;;;;;;74.10;28.55;;;;;;;-146.25;100.00;52566.91;2015499;29;39607;-64
2024/01/26 02:43:41;;;;;;;84.20;30.50;;;;;;;-146.25;100.00;52540.53;2008813;29;33838;-63
2024/01/26 02:44:43;;;;;;;81.65;31.13;;;;;;;-146.25;100.00;52548.66;2017000;29;20135;-63
2024/01/26 02:45:47;;;;;;;79.00;30.23;;;;;;;-146.25;100.00;52585.16;2023958;29;38912;-63
2024/01/26 02:46:49;;;;;;;75.78;30.50;;;;;;;-146.25;100.00;52579.06;2024036;29;20041;-62
2024/01/26 02:47:51;;;;;;;76.03;28.73;;;;;;;-146.25;100.00;52589.22;2024531;29;33336;-63
2024/01/26 02:48:53;;;;;;;80.38;30.23;;;;;;;-146.25;100.00;52579.06;2024291;29;35958;-63
2024/01/26 02:49:54;;;;;;;75.80;30.40;;;;;;;-146.25;100.00;52566.91;2024070;29;34690;-63
2024/01/26 02:50:56;;;;;;;78.28;30.80;;;;;;;-146.25;100.00;52570.97;2024534;29;35829;-63
2024/01/26 02:51:58;;;;;;;75.18;30.77;;;;;;;-146.25;100.00;52570.97;2024664;29;35340;-63
2024/01/26 02:53:02;;;;;;;72.10;29.15;;;;;;;-146.25;100.00;52556.75;2025049;29;21018;-63
2024/01/26 02:54:04;;;;;;;76.78;29.40;;;;;;;-146.25;100.00;52550.69;2023995;29;38131;-63
2024/01/26 02:55:08;;;;;;;89.60;32.08;;;;;;;-146.25;100.00;52558.78;2024254;29;33577;-63
2024/01/26 02:56:10;;;;;;;80.25;30.13;;;;;;;-146.25;100.00;52544.59;2023698;29;35520;-63
2024/01/26 02:57:12;;;;;;;75.38;28.55;;;;;;;-146.25;100.00;52554.75;2024418;29;20827;-63
2024/01/26 02:58:14;;;;;;;73.90;29.90;;;;;;;-146.25;100.00;52540.53;2023421;29;37113;-63
2024/01/26 02:59:15;;;;;;;80.45;30.45;;;;;;;-146.25;100.00;52575.00;2023973;29;38254;-63
2024/01/26 03:00:17;;;;;;;84.75;30.50;;;;;;;-146.25;100.00;52560.81;2023985;29;34415;-64
2024/01/26 03:01:21;;;;;;;78.20;30.20;;;;;;;-146.25;100.00;52552.72;2024044;29;35761;-63
2024/01/26 03:02:23;;;;;;;80.88;31.58;;;;;;;-146.25;100.00;52579.06;2025278;29;20048;-63
2024/01/26 03:03:25;;;;;;;77.50;31.25;;;;;;;-146.25;100.00;52575.00;2024190;29;36455;-63
2024/01/26 03:04:29;;;;;;;76.82;29.95;;;;;;;-146.25;100.00;52587.19;2024084;29;37158;-63
2024/01/26 03:05:31;;;;;;;84.28;29.85;;;;;;;-146.25;100.00;52536.50;2023658;29;33683;-63
2024/01/26 03:06:33;;;;;;;83.90;31.15;;;;;;;-146.25;100.00;52562.84;2023974;29;32095;-63
2024/01/26 03:07:35;;;;;;;82.57;31.40;;;;;;;-146.25;100.00;52573.00;2024724;29;20053;-63
2024/01/26 03:08:36;;;;;;;77.88;30.73;;;;;;;-146.25;100.00;52562.84;2024574;29;38642;-63
2024/01/26 03:09:38;;;;;;;73.07;30.08;;;;;;;-146.25;100.00;52593.25;2024112;29;35072;-63
2024/01/26 03:10:42;;;;;;;73.50;30.15;;;;;;;-146.25;100.00;52540.53;2024428;29;31682;-63
2024/01/26 03:11:44;;;;;;;78.53;30.25;;;;;;;-146.25;100.00;52599.34;2024850;29;20048;-63
2024/01/26 03:12:47;;;;;;;69.47;28.95;;;;;;;-146.25;100.00;52595.28;2024580;29;34285;-63
2024/01/26 03:13:49;;;;;;;74.55;30.05;;;;;;;-146.25;100.00;52611.50;2023846;29;34313;-63
2024/01/26 03:14:52;;;;;;;75.40;30.55;;;;;;;-146.25;100.00;52589.22;2024481;29;37509;-63
2024/01/26 03:15:54;;;;;;;79.28;31.52;;;;;;;-146.25;100.00;52587.19;2024305;29;35228;-63
2024/01/26 03:16:56;;;;;;;74.57;29.77;;;;;;;-146.25;100.00;52554.75;2025189;29;20945;-63
2024/01/26 03:17:57;;;;;;;76.88;29.40;;;;;;;-146.25;100.00;52589.22;2024155;29;36778;-64
2024/01/26 03:18:59;;;;;;;74.88;31.52;;;;;;;-146.25;100.00;52534.47;2023847;29;34382;-63
2024/01/26 03:20:02;;;;;;;72.50;29.75;;;;;;;-146.25;100.00;52589.22;2023253;29;33412;-63
2024/01/26 03:21:04;;;;;;;74.28;30.13;;;;;;;-146.25;100.00;52546.63;2023819;29;35085;-63
2024/01/26 03:22:06;;;;;;;72.68;29.67;;;;;;;-146.25;100.00;52552.72;2024015;29;38881;-64
2024/01/26 03:23:08;;;;;;;72.63;29.17;;;;;;;-146.25;100.00;52587.19;2024377;29;34159;-64
2024/01/26 03:24:11;;;;;;;76.00;31.50;;;;;;;-146.25;100.00;52542.56;2023876;29;36697;-63
2024/01/26 03:25:13;;;;;;;69.97;29.38;;;;;;;-146.25;100.00;52570.97;2024416;29;31372;-63
2024/01/26 03:26:18;;;;;;;70.13;28.95;;;;;;;-146.25;100.00;52552.72;2024640;29;20041;-63
2024/01/26 03:27:20;;;;;;;72.75;30.08;;;;;;;-146.25;100.00;52526.34;2024935;29;20524;-63
2024/01/26 03:28:21;;;;;;;67.50;28.75;;;;;;;-146.25;100.00;52631.78;2024137;29;36463;-63
2024/01/26 03:29:23;;;;;;;79.57;30.33;;;;;;;-146.25;100.00;52587.19;2024311;29;32257;-64
2024/01/26 03:30:25;;;;;;;74.63;31.00;;;;;;;-146.25;100.00;52564.88;2024203;29;33551;-64
2024/01/26 03:31:27;;;;;;;74.38;30.85;;;;;;;-146.25;100.00;52579.06;2024327;29;37840;-63
2024/01/26 03:32:29;;;;;;;72.05;30.60;;;;;;;-146.25;100.00;52583.13;2023124;29;33950;-63
2024/01/26 03:33:31;;;;;;;68.90;29.30;;;;;;;-146.25;100.00;52585.16;2023754;29;34219;-63
2024/01/26 03:34:33;;;;;;;70.95;29.48;;;;;;;-146.25;100.00;52575.00;2023733;29;35086;-64
2024/01/26 03:35:35;;;;;;;75.63;31.27;;;;;;;-146.25;100.00;52566.91;2023409;29;35638;-63
2024/01/26 03:36:37;;;;;;;76.63;31.83;;;;;;;-146.25;100.00;52566.91;2024062;29;30679;-63
2024/01/26 03:37:39;;;;;;;76.13;31.55;;;;;;;-146.25;100.00;52550.69;2024561;29;36241;-63
2024/01/26 03:38:41;;;;;;;72.93;31.80;;;;;;;-146.25;100.00;52544.59;2024184;29;20147;-63
2024/01/26 03:39:43;;;;;;;74.32;30.55;;;;;;;-146.25;100.00;52542.56;2023564;29;37208;-63
2024/01/26 03:40:44;;;;;;;76.45;32.17;;;;;;;-146.25;100.00;52587.19;2023817;29;34241;-63
2024/01/26 03:41:46;;;;;;;75.10;32.20;;;;;;;-146.25;100.00;52575.00;2024261;29;34704;-63
2024/01/26 03:42:48;;;;;;;74.25;31.40;;;;;;;-146.25;100.00;52581.09;2023694;29;38640;-63
2024/01/26 03:43:51;;;;;;;72.28;31.38;;;;;;;-146.25;100.00;52607.47;2023852;29;34248;-63
2024/01/26 03:44:56;;;;;;;77.07;31.23;;;;;;;-146.25;100.00;52585.16;2023547;29;33853;-63
2024/01/26 03:45:58;;;;;;;74.97;31.83;;;;;;;-146.25;100.00;52589.22;2023111;29;37384;-63
2024/01/26 03:47:00;;;;;;;68.47;29.98;;;;;;;-146.25;100.00;52562.84;2022911;29;37638;-63
2024/01/26 03:48:02;;;;;;;77.05;32.15;;;;;;;-146.25;100.00;52621.66;2023944;29;35861;-63
2024/01/26 03:49:03;;;;;;;72.43;32.00;;;;;;;-146.25;100.00;52546.63;2024224;29;26163;-63
2024/01/26 03:50:06;;;;;;;76.05;32.00;;;;;;;-146.25;100.00;52587.19;2023626;29;35756;-64
2024/01/26 03:51:08;;;;;;;76.57;31.65;;;;;;;-146.25;100.00;52605.44;2023680;29;38999;-63
2024/01/26 03:52:09;;;;;;;78.85;32.28;;;;;;;-146.25;100.00;52568.94;2024193;29;33526;-63
2024/01/26 03:53:11;;;;;;;74.40;31.05;;;;;;;-146.25;100.00;52566.91;2024117;29;32084;-63
2024/01/26 03:54:13;;;;;;;79.45;32.75;;;;;;;-146.25;100.00;52577.03;2023718;29;37323;-63
2024/01/26 03:55:17;;;;;;;80.00;32.90;;;;;;;-146.25;100.00;52591.25;2023594;29;37598;-63
2024/01/26 03:56:21;;;;;;;75.25;32.40;;;;;;;-146.25;100.00;52570.97;2024008;29;35356;-63
2024/01/26 03:57:25;;;;;;;78.38;32.58;;;;;;;-146.25;100.00;52577.03;2024660;29;20049;-63
2024/01/26 03:58:27;;;;;;;80.50;33.40;;;;;;;-146.25;100.00;52605.44;2024421;29;31637;-64
2024/01/26 03:59:29;;;;;;;83.43;33.33;;;;;;;-146.25;100.00;52562.84;2023857;29;37629;-63
2024/01/26 04:00:32;;;;;;;73.05;31.45;;;;;;;-146.25;100.00;52564.88;2023294;29;33969;-64
2024/01/26 04:01:34;;;;;;;76.75;32.75;;;;;;;-146.25;100.00;52566.91;2023152;29;32444;-63
2024/01/26 04:02:35;;;;;;;75.70;32.55;;;;;;;-146.25;100.00;52566.91;2023758;29;31724;-63
2024/01/26 04:03:37;;;;;;;71.60;30.60;;;;;;;-146.25;100.00;52587.19;2023842;29;34018;-63
2024/01/26 04:04:40;;;;;;;76.68;34.88;;;;;;;-146.25;100.00;52570.97;2023614;29;36338;-63
2024/01/26 04:05:42;;;;;;;74.00;32.78;;;;;;;-146.25;100.00;52562.84;2023993;29;33085;-63
2024/01/26 04:06:44;;;;;;;81.07;34.75;;;;;;;-146.25;100.00;52560.81;2023809;29;33636;-63
2024/01/26 04:07:45;;;;;;;75.28;33.40;;;;;;;-146.25;100.00;52562.84;2023903;29;35923;-63
2024/01/26 04:08:47;;;;;;;84.75;34.75;;;;;;;-146.25;100.00;52558.78;2024275;29;33953;-63
2024/01/26 04:09:49;;;;;;;78.28;32.92;;;;;;;-146.25;100.00;52542.56;2023511;29;30360;-63
2024/01/26 04:10:50;;;;;;;84.68;34.65;;;;;;;-146.25;100.00;52585.16;2024030;29;37852;-63
2024/01/26 04:11:52;;;;;;;81.10;33.08;;;;;;;-146.25;100.00;52542.56;2023976;29;35845;-63
2024/01/26 04:12:54;;;;;;;81.40;35.45;;;;;;;-146.25;100.00;52568.94;2023955;29;34791;-63
2024/01/26 04:13:56;;;;;;;80.32;33.65;;;;;;;-146.25;100.00;52550.69;2024042;29;37247;-63
2024/01/26 04:15:00;;;;;;;80.70;34.40;;;;;;;-146.25;100.00;52552.72;2023936;29;33587;-63
2024/01/26 04:16:02;;;;;;;83.60;35.60;;;;;;;-146.25;100.00;52568.94;2023849;29;36759;-63
2024/01/26 04:17:03;;;;;;;82.55;35.60;;;;;;;-146.25;100.00;52605.44;2024262;29;29761;-63
2024/01/26 04:18:05;;;;;;;84.65;35.38;;;;;;;-146.25;100.00;52577.03;2023559;29;34250;-64
2024/01/26 04:19:07;;;;;;;79.65;34.55;;;;;;;-146.25;100.00;52558.78;2023770;29;36652;-63
2024/01/26 04:20:10;;;;;;;83.90;34.97;;;;;;;-146.25;100.00;52556.75;2023063;29;37337;-64
2024/01/26 04:21:11;;;;;;;82.30;35.60;;;;;;;-146.25;100.00;52575.00;2023988;29;34828;-63
2024/01/26 04:22:14;;;;;;;81.25;35.63;;;;;;;-146.25;100.00;52554.75;2024119;29;34334;-63
2024/01/26 04:23:16;;;;;;;79.90;34.78;;;;;;;-146.25;100.00;52579.06;2023995;29;33811;-63
2024/01/26 04:24:18;;;;;;;84.95;36.45;;;;;;;-146.25;100.00;52536.50;2024181;29;20037;-63
2024/01/26 04:25:20;;;;;;;83.90;35.10;;;;;;;-146.25;100.00;52562.84;2023444;29;37822;-64
2024/01/26 04:26:23;;;;;;;79.63;35.45;;;;;;;-146.25;100.00;52575.00;2023720;29;35052;-64
2024/01/26 04:27:26;;;;;;;86.03;35.45;;;;;;;-146.25;100.00;52607.47;2024432;29;20049;-63
2024/01/26 04:28:28;;;;;;;78.30;33.97;;;;;;;-146.25;100.00;52581.09;2023576;29;36921;-63
2024/01/26 04:29:33;;;;;;;81.60;36.17;;;;;;;-146.25;100.00;52550.69;2023459;29;35823;-63
2024/01/26 04:30:35;;;;;;;91.50;36.47;;;;;;;-146.25;100.00;52560.81;2022827;29;29681;-63
2024/01/26 04:31:44;;;;;;;81.38;35.80;;;;;;;-146.25;100.00;52575.00;2023332;29;35811;-63
2024/01/26 04:32:45;;;;;;;86.05;36.20;;;;;;;-146.25;100.00;52585.16;2024554;29;20048;-64
2024/01/26 04:33:50;;;;;;;81.93;36.08;;;;;;;-146.25;100.00;52575.00;2024178;29;20037;-64
2024/01/26 04:34:52;;;;;;;75.88;34.28;;;;;;;-146.25;100.00;52573.00;2023327;29;36141;-64
2024/01/26 04:35:54;;;;;;;74.65;35.75;;;;;;;-146.25;100.00;52577.03;2024240;29;32759;-63
2024/01/26 04:36:58;;;;;;;79.78;36.03;;;;;;;-146.25;100.00;52554.75;2024046;29;20049;-64